CheckWX is a tool to help pilots better visualize weather data.  It is not intended as a substitute for an official pre-flight weather briefing.

22:03:44 UTC

KSFO METAR
San Francisco International Airport
San Francisco, California, USA
Current

1 hour ago

KSFO 292056Z 29011KT 9SM BKN180 16/09 A3022 RMK AO2 SLP232 T01560089 58022
Observed
Jan-29 @ 20:56 UTC
Wind
  • 290° at 11 KTS
Visibility
9 SM
Flight Rules
VFR
Cloud Levels
  • Broken at 18,000' AGL
Temperature
16°C / 61°F
Dewpoint
C / 48°F
Humidity
63%
Altimeter
30.22" Hg
Pressure
1023.42 hPa
Previous

2 hours ago

KSFO 291956Z 32011KT 8SM BKN180 15/09 A3025 RMK AO2 SLP244 T01500089
Observed
Jan-29 @ 19:56 UTC
Wind
  • 320° at 11 KTS
Visibility
8 SM
Flight Rules
VFR
Cloud Levels
  • Broken at 18,000' AGL
Temperature
15°C / 59°F
Dewpoint
C / 48°F
Humidity
68%
Altimeter
30.25" Hg
Pressure
1024.42 hPa
Previous

3 hours ago

KSFO 291856Z 05005KT 8SM FEW020 BKN180 13/09 A3029 RMK AO2 SLP256 T01280089
Observed
Jan-29 @ 18:56 UTC
Wind
  • 050° at 5 KTS
Visibility
8 SM
Flight Rules
VFR
Cloud Levels
  • Few at 2,000' AGL
  • Broken at 18,000' AGL
Temperature
13°C / 55°F
Dewpoint
C / 48°F
Humidity
77%
Altimeter
30.29" Hg
Pressure
1025.72 hPa